Island Princess — ZCDG4 — position and weather

sailwx.info

Track history (hours):
 
Tides and Currents Weather Stations Pressure Air Temp Water Temp Dewpoint Dewpoint Depression Visibility Wind Speed Wind Dir Waves Ship Positions

Island Princess

Operator: Princess Cruises

Last reported at 2018-Nov-12 00:00 UTC. Time now 2018-Nov-18 17:12 UTC.
Position N 20°48' W 083°48'.

Type: Passenger vessel. MMSI: 310384000.

Wind from 090 at 22 knots

Barometer 1013.9 mb
Air temperature 27.0 ° C
Visibility: greater than 10.8 NM
Dewpoint 22.6 ° C
Water temperature 30.0 ° C

Date/timePositionNaut miles runAvg speedWind from/ knotsBaromVisibWave heightAir tempDewpointWater temp
2018-Nov-12 00:00N 20°48' W 083°48'8316.5 090 / 221013.910.8 27.022.630.0
2018-Nov-11 19:00N 21°36' W 085°00'8220.5 090 / 241014.410.8 27.521.630.0
2018-Nov-11 15:00N 22°48' W 084°18'5719.0 090 / 151017.310.8 27.523.129.0
2018-Nov-11 12:00N 23°30' W 083°36'22719.4 060 / 101016.510.8 27.022.629.0
2018-Nov-11 00:18N 25°23' W 080°00'518.8
2018-Nov-11 00:02N 25°28' W 079°59'918.8
2018-Nov-10 23:32N 25°38' W 079°58'917.9
2018-Nov-10 23:02N 25°47' W 079°58'816.1
2018-Nov-10 22:33N 25°55' W 079°59'714.8
2018-Nov-10 22:02N 26°02' W 080°00'612.4
2018-Nov-10 21:32N 26°06' W 080°06'1 2.1
2018-Nov-10 21:00N 26°06' W 080°07'0 0.0
2018-Nov-10 20:30N 26°06' W 080°07'0 0.0
2018-Nov-10 20:00N 26°06' W 080°07'0 0.0
2018-Nov-10 19:30N 26°06' W 080°07'0 0.0
2018-Nov-10 19:00N 26°06' W 080°07'0 0.0
2018-Nov-10 18:30N 26°06' W 080°07'0 0.0
2018-Nov-10 18:00N 26°06' W 080°07'0 0.0
2018-Nov-10 17:30N 26°06' W 080°07'0 0.0
2018-Nov-10 17:00N 26°06' W 080°07'0 0.0
2018-Nov-10 16:30N 26°06' W 080°07'0 0.0
2018-Nov-10 16:00N 26°06' W 080°07'0 0.0
2018-Nov-10 15:30N 26°06' W 080°07'0 0.0
2018-Nov-10 15:00N 26°06' W 080°07'0 0.0
2018-Nov-10 14:30N 26°06' W 080°07'0 0.0
2018-Nov-10 14:00N 26°06' W 080°07'0 0.0
2018-Nov-10 13:30N 26°06' W 080°07'0 0.0
2018-Nov-10 13:00N 26°06' W 080°07'0 0.0
2018-Nov-10 12:30N 26°06' W 080°07'0 0.0
2018-Nov-10 12:00N 26°06' W 080°07'0 0.4
2018-Nov-10 11:32N 26°06' W 080°07'3 5.0
2018-Nov-10 11:02N 26°06' W 080°04'4 8.4
2018-Nov-10 10:32N 26°06' W 079°60'5 9.6
2018-Nov-10 10:02N 26°04' W 079°55'612.1
2018-Nov-10 09:32N 25°59' W 079°51'612.2
2018-Nov-10 09:02N 25°54' W 079°47'815.6
2018-Nov-10 08:32N 25°48' W 079°42'1019.5
2018-Nov-10 08:02N 25°38' W 079°39'918.9
2018-Nov-10 07:32N 25°29' W 079°37'714.9
2018-Nov-10 07:02N 25°22' W 079°36'12217.3
2018-Nov-10 00:00N 23°24' W 079°00'24020.0 060 / 161014.010.8 28.022.129.0
2018-Nov-09 12:00N 21°12' W 075°24'390 9.7 060 / 111013.410.8 28.022.929.0
2018-Nov-07 20:00N 16°18' W 079°54'3818.9 090 / 231009.110.8 29.022.430.0
2018-Nov-07 18:00N 15°48' W 080°18'15522.2 070 / 241010.110.8 28.523.529.0
2018-Nov-07 11:00N 13°18' W 081°00'5618.7 090 / 261009.510.8 27.024.129.0
2018-Nov-07 08:00N 12°30' W 081°30'189 6.4 090 / 151012.110.8 27.522.430.0
2018-Nov-06 02:31N 09°38' W 080°11'919.3
2018-Nov-06 02:02N 09°37' W 080°02'119.1
2018-Nov-06 01:58N 09°37' W 080°01'918.6
2018-Nov-06 01:31N 09°30' W 079°55'9 8.2
2018-Nov-06 00:28N 09°22' W 079°54'0 0.0
2018-Nov-05 23:28N 09°22' W 079°54'0 0.0
2018-Nov-05 23:01N 09°22' W 079°54'0 0.0
2018-Nov-05 22:58N 09°22' W 079°54'0 0.0
2018-Nov-05 22:28N 09°22' W 079°54'0 0.0
2018-Nov-05 22:01N 09°22' W 079°54'0 0.0
2018-Nov-05 21:58N 09°22' W 079°54'0 0.0
2018-Nov-05 21:28N 09°22' W 079°54'0 0.0
2018-Nov-05 21:01N 09°22' W 079°54'0 0.0
2018-Nov-05 20:58N 09°22' W 079°54'0 0.8
2018-Nov-05 20:30N 09°22' W 079°53'2 5.3
2018-Nov-05 20:03N 09°24' W 079°55'112.5
2018-Nov-05 20:00N 09°23' W 079°55'5 9.1
2018-Nov-05 19:30N 09°19' W 079°55'2 4.3
2018-Nov-05 19:03N 09°17' W 079°55'0 0.9
2018-Nov-05 19:00N 09°17' W 079°55'0 0.4
2018-Nov-05 18:30N 09°16' W 079°55'0 0.3
2018-Nov-05 17:56N 09°16' W 079°55'0 0.6
2018-Nov-05 17:30N 09°16' W 079°55'1 0.4
2018-Nov-05 16:05N 09°15' W 079°55'0 0.1
2018-Nov-05 16:02N 09°15' W 079°55'0 0.2
2018-Nov-05 15:59N 09°15' W 079°55'0 0.0
2018-Nov-05 15:29N 09°15' W 079°55'0 0.0
2018-Nov-05 15:02N 09°15' W 079°55'0 0.2
2018-Nov-05 14:59N 09°15' W 079°55'0 0.8
2018-Nov-05 14:30N 09°16' W 079°55'0 0.9
2018-Nov-05 14:03N 09°16' W 079°55'0 1.3
2018-Nov-05 14:00N 09°16' W 079°55'0 0.5
2018-Nov-05 13:03N 09°17' W 079°55'0 0.5
2018-Nov-05 13:00N 09°17' W 079°55'1 1.9
2018-Nov-05 12:30N 09°18' W 079°55'2 4.2
2018-Nov-05 12:03N 09°20' W 079°55'0 5.0
2018-Nov-05 12:00N 09°20' W 079°55'3 5.4
2018-Nov-05 11:30N 09°22' W 079°55'4 8.9
2018-Nov-05 11:03N 09°26' W 079°55'114.1
2018-Nov-05 11:00N 09°27' W 079°55'1120.8
2018-Nov-05 10:30N 09°37' W 079°51'  
Track history (hours):
 
Tides and Currents Weather Stations Pressure Air Temp Water Temp Dewpoint Dewpoint Depression Visibility Wind Speed Wind Dir Waves Ship Positions

Island Princess

Operator: Princess Cruises

Last reported at 2018-Nov-12 00:00 UTC. Time now 2018-Nov-18 17:12 UTC.
Position N 20°48' W 083°48'.

Type: Passenger vessel. MMSI: 310384000.

Wind from 090 at 22 knots

Barometer 1013.9 mb
Air temperature 27.0 ° C
Visibility: greater than 10.8 NM
Dewpoint 22.6 ° C
Water temperature 30.0 ° C

Date/timePositionNaut miles runAvg speedWind from/ knotsBaromVisibWave heightAir tempDewpointWater temp
2018-Nov-12 00:00N 20°48' W 083°48'8316.5 090 / 221013.910.8 27.022.630.0
2018-Nov-11 19:00N 21°36' W 085°00'8220.5 090 / 241014.410.8 27.521.630.0
2018-Nov-11 15:00N 22°48' W 084°18'5719.0 090 / 151017.310.8 27.523.129.0
2018-Nov-11 12:00N 23°30' W 083°36'22719.4 060 / 101016.510.8 27.022.629.0
2018-Nov-11 00:18N 25°23' W 080°00'518.8
2018-Nov-11 00:02N 25°28' W 079°59'918.8
2018-Nov-10 23:32N 25°38' W 079°58'917.9
2018-Nov-10 23:02N 25°47' W 079°58'816.1
2018-Nov-10 22:33N 25°55' W 079°59'714.8
2018-Nov-10 22:02N 26°02' W 080°00'612.4
2018-Nov-10 21:32N 26°06' W 080°06'1 2.1
2018-Nov-10 21:00N 26°06' W 080°07'0 0.0
2018-Nov-10 20:30N 26°06' W 080°07'0 0.0
2018-Nov-10 20:00N 26°06' W 080°07'0 0.0
2018-Nov-10 19:30N 26°06' W 080°07'0 0.0
2018-Nov-10 19:00N 26°06' W 080°07'0 0.0
2018-Nov-10 18:30N 26°06' W 080°07'0 0.0
2018-Nov-10 18:00N 26°06' W 080°07'0 0.0
2018-Nov-10 17:30N 26°06' W 080°07'0 0.0
2018-Nov-10 17:00N 26°06' W 080°07'0 0.0
2018-Nov-10 16:30N 26°06' W 080°07'0 0.0
2018-Nov-10 16:00N 26°06' W 080°07'0 0.0
2018-Nov-10 15:30N 26°06' W 080°07'0 0.0
2018-Nov-10 15:00N 26°06' W 080°07'0 0.0
2018-Nov-10 14:30N 26°06' W 080°07'0 0.0
2018-Nov-10 14:00N 26°06' W 080°07'0 0.0
2018-Nov-10 13:30N 26°06' W 080°07'0 0.0
2018-Nov-10 13:00N 26°06' W 080°07'0 0.0
2018-Nov-10 12:30N 26°06' W 080°07'0 0.0
2018-Nov-10 12:00N 26°06' W 080°07'0 0.4
2018-Nov-10 11:32N 26°06' W 080°07'3 5.0
2018-Nov-10 11:02N 26°06' W 080°04'4 8.4
2018-Nov-10 10:32N 26°06' W 079°60'5 9.6
2018-Nov-10 10:02N 26°04' W 079°55'612.1
2018-Nov-10 09:32N 25°59' W 079°51'612.2
2018-Nov-10 09:02N 25°54' W 079°47'815.6
2018-Nov-10 08:32N 25°48' W 079°42'1019.5
2018-Nov-10 08:02N 25°38' W 079°39'918.9
2018-Nov-10 07:32N 25°29' W 079°37'714.9
2018-Nov-10 07:02N 25°22' W 079°36'12217.3
2018-Nov-10 00:00N 23°24' W 079°00'24020.0 060 / 161014.010.8 28.022.129.0
2018-Nov-09 12:00N 21°12' W 075°24'390 9.7 060 / 111013.410.8 28.022.929.0
2018-Nov-07 20:00N 16°18' W 079°54'3818.9 090 / 231009.110.8 29.022.430.0
2018-Nov-07 18:00N 15°48' W 080°18'15522.2 070 / 241010.110.8 28.523.529.0
2018-Nov-07 11:00N 13°18' W 081°00'5618.7 090 / 261009.510.8 27.024.129.0
2018-Nov-07 08:00N 12°30' W 081°30'189 6.4 090 / 151012.110.8 27.522.430.0
2018-Nov-06 02:31N 09°38' W 080°11'919.3
2018-Nov-06 02:02N 09°37' W 080°02'119.1
2018-Nov-06 01:58N 09°37' W 080°01'918.6
2018-Nov-06 01:31N 09°30' W 079°55'9 8.2
2018-Nov-06 00:28N 09°22' W 079°54'0 0.0
2018-Nov-05 23:28N 09°22' W 079°54'0 0.0
2018-Nov-05 23:01N 09°22' W 079°54'0 0.0
2018-Nov-05 22:58N 09°22' W 079°54'0 0.0
2018-Nov-05 22:28N 09°22' W 079°54'0 0.0
2018-Nov-05 22:01N 09°22' W 079°54'0 0.0
2018-Nov-05 21:58N 09°22' W 079°54'0 0.0
2018-Nov-05 21:28N 09°22' W 079°54'0 0.0
2018-Nov-05 21:01N 09°22' W 079°54'0 0.0
2018-Nov-05 20:58N 09°22' W 079°54'0 0.8
2018-Nov-05 20:30N 09°22' W 079°53'2 5.3
2018-Nov-05 20:03N 09°24' W 079°55'112.5
2018-Nov-05 20:00N 09°23' W 079°55'5 9.1
2018-Nov-05 19:30N 09°19' W 079°55'2 4.3
2018-Nov-05 19:03N 09°17' W 079°55'0 0.9
2018-Nov-05 19:00N 09°17' W 079°55'0 0.4
2018-Nov-05 18:30N 09°16' W 079°55'0 0.3
2018-Nov-05 17:56N 09°16' W 079°55'0 0.6
2018-Nov-05 17:30N 09°16' W 079°55'1 0.4
2018-Nov-05 16:05N 09°15' W 079°55'0 0.1
2018-Nov-05 16:02N 09°15' W 079°55'0 0.2
2018-Nov-05 15:59N 09°15' W 079°55'0 0.0
2018-Nov-05 15:29N 09°15' W 079°55'0 0.0
2018-Nov-05 15:02N 09°15' W 079°55'0 0.2
2018-Nov-05 14:59N 09°15' W 079°55'0 0.8
2018-Nov-05 14:30N 09°16' W 079°55'0 0.9
2018-Nov-05 14:03N 09°16' W 079°55'0 1.3
2018-Nov-05 14:00N 09°16' W 079°55'0 0.5
2018-Nov-05 13:03N 09°17' W 079°55'0 0.5
2018-Nov-05 13:00N 09°17' W 079°55'1 1.9
2018-Nov-05 12:30N 09°18' W 079°55'2 4.2
2018-Nov-05 12:03N 09°20' W 079°55'0 5.0
2018-Nov-05 12:00N 09°20' W 079°55'3 5.4
2018-Nov-05 11:30N 09°22' W 079°55'4 8.9
2018-Nov-05 11:03N 09°26' W 079°55'114.1
2018-Nov-05 11:00N 09°27' W 079°55'1120.8
2018-Nov-05 10:30N 09°37' W 079°51'  

Dump ship's entire track history